Time;durP1;ratioP1;P1;durP2;ratioP2;P2;SDS_P1;SDS_P2;PMS_P1;PMS_P2;Temp;Humidity;BMP_temperature;BMP_pressure;BME280_temperature;BME280_humidity;BME280_pressure;Samples;Min_cycle;Max_cycle;Signal;HPM_P1;HPM_P2
2023/09/05 01:40:56;;;;;;;15.18;11.30;;;10.90;99.90;;;;;;4946479;28;20073;-77
2023/09/05 01:43:22;;;;;;;13.32;10.55;;;;;;;;;;4955704;28;20085;-75
2023/09/05 01:45:48;;;;;;;9.82;8.32;;;;;;;;;;4946833;28;20058;-80
2023/09/05 01:48:14;;;;;;;8.63;7.60;;;;;;;;;;4950337;28;20860;-78
2023/09/05 01:50:41;;;;;;;12.40;11.10;;;;;;;;;;4938134;28;20133;-77
2023/09/05 01:53:09;;;;;;;13.52;10.60;;;;;;;;;;4955541;28;20054;-78
2023/09/05 01:55:36;;;;;;;17.88;14.25;;;;;;;;;;4945736;28;20233;-79
2023/09/05 01:58:02;;;;;;;24.73;16.92;;;;;;;;;;4952134;28;20050;-77
2023/09/05 02:00:28;;;;;;;17.23;14.93;;;;;;;;;;4943228;28;20162;-78
2023/09/05 02:02:54;;;;;;;24.95;17.33;;;;;;;;;;4967731;28;20059;-75
2023/09/05 02:05:20;;;;;;;26.42;17.83;;;;;;;;;;4944527;28;20622;-77
2023/09/05 02:07:46;;;;;;;24.90;18.27;;;;;;;;;;4952338;28;20579;-79
2023/09/05 02:10:12;;;;;;;20.65;16.88;;;;;;;;;;4952914;28;20515;-79
2023/09/05 02:12:39;;;;;;;24.77;16.95;;;;;;;;;;4955556;28;20077;-79
2023/09/05 02:15:05;;;;;;;24.48;17.92;;;11.50;99.90;;;;;;4950663;28;20773;-77
2023/09/05 02:17:31;;;;;;;24.98;17.33;;;;;;;;;;4955512;28;20528;-76
2023/09/05 02:19:57;;;;;;;22.15;16.80;;;;;;;;;;4948462;28;20069;-81
2023/09/05 02:22:24;;;;;;;19.27;16.17;;;;;;;;;;4960004;28;20104;-77
2023/09/05 02:24:50;;;;;;;18.08;13.77;;;;;;;;;;4953052;28;20141;-82
2023/09/05 02:27:17;;;;;;;18.80;13.52;;;;;;;;;;4949442;28;20172;-77
2023/09/05 02:29:49;;;;;;;15.38;11.35;;;;;;;;;;4956510;28;20081;-78
2023/09/05 02:32:17;;;;;;;;;;;11.40;99.90;;;;;;4956493;28;20220;-77
2023/09/05 02:34:43;;;;;;;11.57;9.70;;;;;;;;;;4953371;28;20395;-75
2023/09/05 02:37:09;;;;;;;13.35;11.35;;;;;;;;;;4949047;28;20120;-82
2023/09/05 02:39:35;;;;;;;11.82;10.32;;;;;;;;;;4951366;28;20059;-75
2023/09/05 02:42:03;;;;;;;9.50;7.65;;;;;;;;;;4951059;28;20101;-77
2023/09/05 02:44:29;;;;;;;9.60;5.90;;;;;;;;;;4944011;28;20218;-79
2023/09/05 02:46:55;;;;;;;8.77;7.30;;;;;;;;;;4944456;28;20058;-76
2023/09/05 02:49:21;;;;;;;10.25;8.23;;;;;;;;;;4950938;28;20058;-76
2023/09/05 02:51:47;;;;;;;8.05;6.63;;;;;;;;;;4955825;28;20065;-75
2023/09/05 02:54:13;;;;;;;16.75;14.05;;;;;;;;;;4955803;28;20054;-76
2023/09/05 02:56:39;;;;;;;19.00;16.02;;;;;;;;;;4949271;28;20059;-74
2023/09/05 02:59:05;;;;;;;22.75;17.40;;;;;;;;;;4944928;28;20428;-79
2023/09/05 03:01:32;;;;;;;21.58;17.33;;;;;;;;;;4955504;28;20061;-76
2023/09/05 03:03:58;;;;;;;20.63;16.23;;;;;;;;;;4950143;28;20054;-78
2023/09/05 03:06:24;;;;;;;20.63;17.92;;;;;;;;;;4952930;28;20516;-76
2023/09/05 03:08:50;;;;;;;24.10;18.05;;;;;;;;;;4946287;28;20117;-75
2023/09/05 03:11:36;;;;;;;23.58;17.98;;;11.60;99.90;;;;;;4939802;28;20526;-77
2023/09/05 03:14:02;;;;;;;30.92;19.50;;;;;;;;;;4934030;28;20149;-81
2023/09/05 03:16:28;;;;;;;27.70;19.20;;;;;;;;;;4941224;28;20066;-75
2023/09/05 03:18:59;;;;;;;26.83;18.42;;;;;;;;;;4951133;28;20480;-78
2023/09/05 03:21:28;;;;;;;27.65;20.17;;;11.70;99.90;;;;;;4954955;28;21104;-75
2023/09/05 03:23:54;;;;;;;27.88;18.83;;;;;;;;;;4949986;28;20059;-78
2023/09/05 03:26:20;;;;;;;28.63;18.83;;;;;;;;;;4952877;28;20070;-77
2023/09/05 03:28:47;;;;;;;21.48;18.48;;;;;;;;;;4939796;28;20046;-74
2023/09/05 03:31:13;;;;;;;27.23;19.95;;;;;;;;;;4954065;28;20058;-79
2023/09/05 03:33:39;;;;;;;23.83;18.85;;;;;;;;;;4937805;28;20069;-80
2023/09/05 03:36:06;;;;;;;26.05;20.25;;;;;;;;;;4954037;28;20050;-75
2023/09/05 03:38:32;;;;;;;21.30;16.65;;;;;;;;;;4951933;28;20055;-78
2023/09/05 03:40:58;;;;;;;24.05;17.80;;;;;;;;;;4944887;28;20188;-82
2023/09/05 03:43:24;;;;;;;24.00;18.20;;;;;;;;;;4937802;28;20054;-79
2023/09/05 03:45:51;;;;;;;25.02;19.13;;;;;;;;;;4937050;28;20058;-77
2023/09/05 03:48:17;;;;;;;30.98;20.52;;;;;;;;;;4949426;28;20050;-78
2023/09/05 03:50:43;;;;;;;22.17;17.63;;;;;;;;;;4954901;28;20141;-82
2023/09/05 03:53:09;;;;;;;20.65;15.15;;;;;;;;;;4951384;28;20578;-78
2023/09/05 03:55:35;;;;;;;24.20;15.10;;;;;;;;;;4943270;28;20145;-76
2023/09/05 03:58:02;;;;;;;14.13;11.93;;;11.40;99.90;;;;;;4954055;28;20054;-78
2023/09/05 04:00:29;;;;;;;16.85;10.82;;;;;;;;;;4963271;28;20435;-81
2023/09/05 04:02:56;;;;;;;17.50;14.93;;;;;;;;;;4962983;28;20552;-81
2023/09/05 04:05:22;;;;;;;22.13;17.45;;;;;;;;;;4963722;28;20061;-79
2023/09/05 04:07:48;;;;;;;30.85;21.65;;;;;;;;;;4954503;28;20125;-75
2023/09/05 04:10:18;;;;;;;28.92;18.85;;;11.40;99.90;;;;;;4947324;28;20683;-82
2023/09/05 04:12:44;;;;;;;24.42;18.90;;;;;;;;;;4944752;28;20061;-79
2023/09/05 04:15:11;;;;;;;28.70;19.42;;;;;;;;;;4953040;28;20286;-78
2023/09/05 04:17:37;;;;;;;22.58;14.43;;;;;;;;;;4957005;28;20054;-80
2023/09/05 04:20:07;;;;;;;17.45;12.32;;;11.40;99.90;;;;;;4946439;28;20068;-78
2023/09/05 04:22:33;;;;;;;16.30;11.55;;;;;;;;;;4960805;28;20943;-76
2023/09/05 04:24:59;;;;;;;9.23;8.23;;;;;;;;;;4953626;28;20130;-81
2023/09/05 04:27:25;;;;;;;8.10;6.95;;;;;;;;;;4969950;28;20122;-79
2023/09/05 04:29:54;;;;;;;7.65;6.20;;;;;;;;;;4966701;28;20272;-79
2023/09/05 04:32:30;;;;;;;11.90;7.03;;;11.10;99.90;;;;;;4947083;28;20067;-85
2023/09/05 04:34:58;;;;;;;9.65;6.65;;;11.10;99.90;;;;;;4957271;28;20124;-79
2023/09/05 04:37:26;;;;;;;7.47;5.80;;;11.60;99.90;;;;;;4941434;28;20093;-82
2023/09/05 07:16:57;;;;;;;7.80;7.10;;;;;;;;;;4958852;28;20050;-78
2023/09/05 07:19:23;;;;;;;7.68;6.97;;;;;;;;;;4949095;28;20415;-76
2023/09/05 07:21:49;;;;;;;8.18;6.53;;;;;;;;;;4948209;28;20050;-75
2023/09/05 07:24:16;;;;;;;8.02;6.88;;;;;;;;;;4941641;28;20062;-74
2023/09/05 07:26:42;;;;;;;8.43;6.32;;;;;;;;;;4934781;28;20059;-75
2023/09/05 07:29:12;;;;;;;8.75;6.68;;;19.10;99.90;;;;;;4947460;28;20049;-77
2023/09/05 07:31:57;;;;;;;6.03;5.40;;;;;;;;;;4891774;29;20146;-79
2023/09/05 07:34:26;;;;;;;10.15;6.70;;;19.00;99.90;;;;;;4892800;29;20055;-74
2023/09/05 07:36:54;;;;;;;6.90;4.93;;;;;;;;;;4899851;29;20059;-75
2023/09/05 07:39:20;;;;;;;8.27;6.30;;;;;;;;;;4893143;29;20548;-74
2023/09/05 07:41:47;;;;;;;8.57;6.40;;;;;;;;;;4878991;29;20060;-73
2023/09/05 07:44:13;;;;;;;11.18;7.50;;;;;;;;;;4898130;29;20055;-74
2023/09/05 07:46:39;;;;;;;8.38;6.50;;;;;;;;;;4904035;29;20074;-75
2023/09/05 07:49:06;;;;;;;9.40;6.70;;;;;;;;;;4898960;29;20134;-76
2023/09/05 07:51:32;;;;;;;14.70;8.60;;;;;;;;;;4890405;29;20151;-76
2023/09/05 07:54:04;;;;;;;10.52;7.65;;;19.10;99.90;;;;;;4901810;28;20059;-75
2023/09/05 07:56:30;;;;;;;;;;;19.20;99.90;;;;;;4903617;29;20076;-75
2023/09/05 07:58:56;;;;;;;13.15;9.13;;;19.10;99.90;;;;;;4900898;29;19931;-75
2023/09/05 08:01:23;;;;;;;11.85;7.70;;;;;;;;;;4891434;29;20059;-76
2023/09/05 08:03:50;;;;;;;11.20;7.53;;;;;;;;;;4937740;28;20169;-73
2023/09/05 08:06:17;;;;;;;10.07;6.75;;;;;;;;;;4941504;28;20086;-75
2023/09/05 08:08:43;;;;;;;9.48;6.28;;;;;;;;;;4927242;28;20186;-75
2023/09/05 08:11:09;;;;;;;8.15;5.68;;;;;;;;;;4942475;28;20046;-74
2023/09/05 08:13:35;;;;;;;7.32;6.03;;;;;;;;;;4960968;28;20429;-77
2023/09/05 08:16:02;;;;;;;9.20;4.82;;;;;;;;;;4944736;28;20506;-76
2023/09/05 08:19:20;;;;;;;7.47;5.28;;;20.60;99.90;;;;;;4946689;28;20121;-74
2023/09/05 08:21:46;;;;;;;10.93;4.70;;;;;;;;;;4930228;28;20607;-76
2023/09/05 08:24:12;;;;;;;4.78;3.95;;;;;;;;;;4952130;28;20066;-77
2023/09/05 08:26:39;;;;;;;6.38;3.90;;;;;;;;;;4941424;28;20050;-75
2023/09/05 08:29:06;;;;;;;5.10;2.97;;;;;;;;;;4950473;28;20058;-76
2023/09/05 08:31:32;;;;;;;5.03;3.50;;;;;;;;;;4941765;28;20055;-74
2023/09/05 08:33:59;;;;;;;6.70;3.22;;;;;;;;;;4942770;28;20055;-76
2023/09/05 08:36:25;;;;;;;6.97;4.20;;;;;;;;;;4922166;28;20066;-79
2023/09/05 08:38:52;;;;;;;7.28;4.65;;;;;;;;;;4944767;28;20058;-74
2023/09/05 08:41:20;;;;;;;5.60;4.40;;;;;;;;;;4947041;28;20727;-77
2023/09/05 08:43:46;;;;;;;4.85;3.45;;;30.80;88.60;;;;;;4950758;28;20058;-72
2023/09/05 08:46:12;;;;;;;7.97;4.60;;;;;;;;;;4943572;28;20740;-75
2023/09/05 08:48:39;;;;;;;5.78;3.90;;;;;;;;;;4943616;28;20555;-76
2023/09/05 08:51:10;;;;;;;5.45;3.58;;;31.50;81.50;;;;;;4938720;28;20066;-78
2023/09/05 08:53:42;;;;;;;5.70;3.50;;;31.60;80.30;;;;;;4942234;28;20108;-79
2023/09/05 08:56:09;;;;;;;5.50;3.22;;;30.20;78.40;;;;;;4948606;28;20050;-75
2023/09/05 08:58:35;;;;;;;4.88;3.42;;;;;;;;;;4931993;28;20875;-76
2023/09/05 09:01:02;;;;;;;3.60;2.58;;;;;;;;;;4945990;28;20058;-77
2023/09/05 09:03:30;;;;;;;4.75;2.92;;;32.40;75.80;;;;;;4959212;28;20051;-74
2023/09/05 09:05:57;;;;;;;5.78;2.65;;;;;;;;;;4942069;28;20058;-76
2023/09/05 09:08:25;;;;;;;6.78;2.33;;;;;;;;;;4946327;28;20101;-72
2023/09/05 09:11:07;;;;;;;4.78;2.85;;;32.90;72.60;;;;;;4940289;28;20140;-76
2023/09/05 09:13:33;;;;;;;2.78;2.30;;;;;;;;;;4963879;28;20065;-75
2023/09/05 22:19:55;;;;;;;7.72;6.43;;;;;;;;;;4971049;28;20149;-76
2023/09/05 22:22:21;;;;;;;8.13;7.32;;;;;;;;;;4937524;28;20062;-76
2023/09/05 22:24:47;;;;;;;7.85;6.97;;;;;;;;;;4952847;28;20054;-72
2023/09/05 22:27:13;;;;;;;8.75;7.57;;;;;;;;;;4951766;28;20124;-78
2023/09/05 22:29:39;;;;;;;10.75;6.82;;;;;;;;;;4951206;28;20057;-76
2023/09/05 22:32:06;;;;;;;9.32;7.10;;;;;;;;;;4952380;28;20054;-76
2023/09/05 22:34:32;;;;;;;8.80;6.57;;;;;;;;;;4951057;28;20065;-74
2023/09/05 22:36:58;;;;;;;6.72;5.85;;;;;;;;;;4952336;28;20059;-79
2023/09/05 22:39:24;;;;;;;6.15;5.50;;;;;;;;;;4955306;28;20493;-77
2023/09/05 22:41:50;;;;;;;8.20;5.50;;;;;;;;;;4953009;28;20057;-76
2023/09/05 22:44:16;;;;;;;6.65;5.68;;;;;;;;;;4969343;28;20086;-77
2023/09/05 22:46:42;;;;;;;6.93;5.32;;;;;;;;;;4952412;28;20058;-76
2023/09/05 22:49:08;;;;;;;6.25;5.60;;;;;;;;;;4947747;28;20054;-74
2023/09/05 22:51:36;;;;;;;6.55;5.88;;;;;;;;;;4606874;28;9999694;-77
2023/09/05 22:54:04;;;;;;;6.70;6.00;;;;;;;;;;4949371;28;20062;-77
2023/09/05 22:56:30;;;;;;;9.30;5.30;;;;;;;;;;4950353;28;20050;-80
2023/09/05 22:58:56;;;;;;;6.35;5.63;;;;;;;;;;4952932;28;20165;-79
2023/09/05 23:01:22;;;;;;;6.88;5.00;;;;;;;;;;4955651;28;20161;-74
2023/09/05 23:03:48;;;;;;;9.18;6.53;;;;;;;;;;4939959;28;20066;-74
2023/09/05 23:06:14;;;;;;;18.95;8.23;;;;;;;;;;4962008;28;20457;-75
2023/09/05 23:08:40;;;;;;;8.95;7.38;;;;;;;;;;4956425;28;20065;-76
2023/09/05 23:11:07;;;;;;;9.85;8.75;;;;;;;;;;4955705;28;20132;-76
2023/09/05 23:13:36;;;;;;;10.18;8.65;;;16.90;99.90;;;;;;4956977;28;20092;-80
2023/09/05 23:16:02;;;;;;;8.30;7.50;;;;;;;;;;4942821;28;20745;-72
2023/09/05 23:18:34;;;;;;;9.43;7.30;;;;;;;;;;4956750;28;20123;-76
2023/09/05 23:21:00;;;;;;;7.15;6.22;;;;;;;;;;4953599;28;20424;-77
2023/09/05 23:23:27;;;;;;;10.35;7.57;;;;;;;;;;4955221;28;20091;-76
2023/09/05 23:25:53;;;;;;;8.82;6.95;;;;;;;;;;4942196;28;20972;-76
2023/09/05 23:28:19;;;;;;;13.07;7.25;;;;;;;;;;4934664;28;20264;-75
2023/09/05 23:30:45;;;;;;;8.38;7.32;;;;;;;;;;4957973;28;20058;-77
2023/09/05 23:33:11;;;;;;;9.23;7.20;;;;;;;;;;4956993;28;20078;-75
2023/09/05 23:35:40;;;;;;;8.40;6.55;;;;;;;;;;4949254;28;20166;-73
2023/09/05 23:38:13;;;;;;;9.07;6.75;;;16.90;99.90;;;;;;4957233;28;20054;-80
2023/09/05 23:40:39;;;;;;;9.25;5.10;;;;;;;;;;4950308;28;20062;-75
2023/09/05 23:43:06;;;;;;;4.40;3.83;;;;;;;;;;4956631;28;20474;-72
2023/09/05 23:45:37;;;;;;;3.20;2.67;;;;;;;;;;4937219;28;20054;-78
2023/09/05 23:48:04;;;;;;;2.95;2.60;;;;;;;;;;4938081;28;20484;-77
2023/09/05 23:50:30;;;;;;;1.80;1.55;;;;;;;;;;4956539;28;20555;-77
2023/09/05 23:52:58;;;;;;;2.92;0.85;;;16.50;99.90;;;;;;4955980;28;20137;-79
2023/09/05 23:55:30;;;;;;;1.92;1.02;;;;;;;;;;4951925;28;20057;-77
2023/09/05 23:57:56;;;;;;;4.38;3.63;;;;;;;;;;4936334;28;20077;-79
